Lycoming, Pennsylvania
Current Conditions -  °F | °C
As of 11:54 PM on Thursday 30 Oct 2014 (Local Time) from KIPT Reporting Station
Clear Clear  
Wind Chill: 33°   Ceiling: Unl
Heat Index: 38°   Visibility: 10mi
Dew Point: 32°   Wind: 7mph
Humidity: 79%   Direction: 350°N
Pressure: 30.03"   Gusts: NA
Location:  41.3181°N, 77.075°W
Report Text: KIPT 310354Z AUTO 35006KT 10SM CLR 03/00 A3003 RMK AO2 SLP173 T00330000
Loading
Personal Weather Stations






























Interactive Weather Map
Tropical Storm Tracking
New forecast layout! Learn more

10-Day Weather Forecast

Advertisements
Track Severe Weather on mobile